CEB957 RPLL-RPMD
Flight info
| Callsign | CEB957 |
|---|---|
| Flight time | 1h 26m |
| Altitude | 37000 |
| Route | IPATA2P IPATA B462 MASBA W9A BN W9 RIMAR RIMAR2R |
| Aircraft | A21N/M-SDE3FGHIRWY/LB1 |
Departure
| Time | 2026-05-04 06:08 |
|---|---|
| Airport | Ninoy Aquino International Airport (RPLL) |
Arrival
| Time | 2026-05-04 07:34 |
|---|---|
| Airport | Francisco Bangoy International Airport (RPMD) |
| Time | Latitude | Longitude | Altitude | Speed | Heading |
|---|---|---|---|---|---|
| 2026-05-04 05:38 | 14.51703 | 121.01659 | 82 ft | 0 kts | 225° |
| 2026-05-04 05:48 | 14.51704 | 121.01660 | 82 ft | 1 kts | 225° |
| 2026-05-04 05:48 | 14.51714 | 121.01671 | 82 ft | 2 kts | 224° |
| 2026-05-04 05:48 | 14.51725 | 121.01681 | 82 ft | 2 kts | 225° |
| 2026-05-04 05:48 | 14.51732 | 121.01688 | 82 ft | 2 kts | 225° |
| 2026-05-04 05:49 | 14.51744 | 121.01698 | 82 ft | 0 kts | 196° |
| 2026-05-04 05:51 | 14.51789 | 121.01677 | 82 ft | 0 kts | 134° |
| 2026-05-04 05:54 | 14.51788 | 121.01678 | 82 ft | 0 kts | 134° |
| 2026-05-04 05:55 | 14.51778 | 121.01688 | 82 ft | 3 kts | 134° |
| 2026-05-04 05:55 | 14.51758 | 121.01711 | 82 ft | 5 kts | 133° |
| 2026-05-04 05:55 | 14.51729 | 121.01742 | 82 ft | 7 kts | 133° |
| 2026-05-04 05:55 | 14.51685 | 121.01778 | 82 ft | 8 kts | 156° |
| 2026-05-04 05:56 | 14.51619 | 121.01771 | 82 ft | 10 kts | 214° |
| 2026-05-04 05:56 | 14.51559 | 121.01711 | 82 ft | 13 kts | 225° |
| 2026-05-04 05:56 | 14.51500 | 121.01650 | 82 ft | 9 kts | 225° |
| 2026-05-04 05:56 | 14.51458 | 121.01616 | 82 ft | 7 kts | 195° |
| 2026-05-04 05:57 | 14.51406 | 121.01641 | 82 ft | 9 kts | 134° |
| 2026-05-04 05:57 | 14.51355 | 121.01695 | 82 ft | 11 kts | 134° |
| 2026-05-04 05:57 | 14.51294 | 121.01758 | 82 ft | 13 kts | 134° |
| 2026-05-04 05:57 | 14.51235 | 121.01820 | 82 ft | 10 kts | 134° |
| 2026-05-04 05:58 | 14.51189 | 121.01868 | 82 ft | 7 kts | 134° |
| 2026-05-04 05:58 | 14.51165 | 121.01892 | 82 ft | 0 kts | 135° |
| 2026-05-04 05:58 | 14.51165 | 121.01893 | 82 ft | 0 kts | 135° |
| 2026-05-04 05:58 | 14.51158 | 121.01900 | 82 ft | 2 kts | 135° |
| 2026-05-04 05:59 | 14.51147 | 121.01911 | 82 ft | 4 kts | 135° |
| 2026-05-04 05:59 | 14.51110 | 121.01950 | 82 ft | 7 kts | 134° |
| 2026-05-04 05:59 | 14.51076 | 121.01983 | 82 ft | 6 kts | 148° |
| 2026-05-04 05:59 | 14.51031 | 121.01969 | 82 ft | 8 kts | 235° |
| 2026-05-04 06:00 | 14.50994 | 121.01904 | 82 ft | 11 kts | 240° |
| 2026-05-04 06:00 | 14.50950 | 121.01823 | 82 ft | 14 kts | 240° |
| 2026-05-04 06:00 | 14.50915 | 121.01761 | 82 ft | 6 kts | 240° |
| 2026-05-04 06:00 | 14.50887 | 121.01711 | 82 ft | 7 kts | 240° |
| 2026-05-04 06:01 | 14.50860 | 121.01662 | 82 ft | 7 kts | 240° |
| 2026-05-04 06:01 | 14.50831 | 121.01609 | 82 ft | 9 kts | 240° |
| 2026-05-04 06:03 | 14.50461 | 121.00944 | 82 ft | 19 kts | 240° |
| 2026-05-04 06:03 | 14.50372 | 121.00784 | 82 ft | 18 kts | 240° |
| 2026-05-04 06:05 | 14.49990 | 121.00098 | 82 ft | 9 kts | 240° |
| 2026-05-04 06:05 | 14.49925 | 120.99985 | 82 ft | 8 kts | 230° |
| 2026-05-04 06:05 | 14.49875 | 120.99964 | 82 ft | 7 kts | 171° |
| 2026-05-04 06:06 | 14.49845 | 120.99978 | 82 ft | 7 kts | 144° |
| 2026-05-04 06:06 | 14.49811 | 121.00015 | 82 ft | 7 kts | 109° |
| 2026-05-04 06:06 | 14.49815 | 121.00066 | 82 ft | 6 kts | 67° |
| 2026-05-04 06:06 | 14.49833 | 121.00098 | 82 ft | 0 kts | 60° |
| 2026-05-04 06:07 | 14.49836 | 121.00104 | 82 ft | 6 kts | 60° |
| 2026-05-04 06:07 | 14.49988 | 121.00378 | 82 ft | 83 kts | 60° |
| 2026-05-04 06:08 | 14.50399 | 121.01118 | 82 ft | 149 kts | 60° |
| 2026-05-04 06:08 | 14.50946 | 121.02112 | 593 ft | 157 kts | 61° |
| 2026-05-04 06:08 | 14.51450 | 121.03024 | 1356 ft | 150 kts | 61° |
| 2026-05-04 06:08 | 14.51794 | 121.03644 | 1795 ft | 151 kts | 61° |
| 2026-05-04 06:09 | 14.52320 | 121.04591 | 2200 ft | 157 kts | 61° |
| 2026-05-04 06:09 | 14.53077 | 121.05959 | 2515 ft | 173 kts | 61° |
| 2026-05-04 06:11 | 14.51249 | 121.15233 | 4927 ft | 272 kts | 135° |
| 2026-05-04 06:11 | 14.49836 | 121.16545 | 5591 ft | 273 kts | 134° |
| 2026-05-04 06:13 | 14.40008 | 121.26453 | 9818 ft | 294 kts | 132° |
| 2026-05-04 06:14 | 14.30599 | 121.36140 | 12395 ft | 334 kts | 133° |
| 2026-05-04 06:14 | 14.28954 | 121.37832 | 12937 ft | 336 kts | 133° |
| 2026-05-04 06:15 | 14.27851 | 121.38966 | 13278 ft | 338 kts | 133° |
| 2026-05-04 06:15 | 14.25625 | 121.41253 | 13931 ft | 341 kts | 133° |
| 2026-05-04 06:15 | 14.24503 | 121.42406 | 14246 ft | 342 kts | 133° |
| 2026-05-04 06:15 | 14.22247 | 121.44725 | 14895 ft | 345 kts | 133° |
| 2026-05-04 06:16 | 14.21127 | 121.45875 | 15198 ft | 347 kts | 133° |
| 2026-05-04 06:16 | 14.18834 | 121.48231 | 15798 ft | 350 kts | 133° |
| 2026-05-04 06:16 | 14.17110 | 121.50003 | 16276 ft | 352 kts | 133° |
| 2026-05-04 06:16 | 14.15951 | 121.51193 | 16553 ft | 354 kts | 133° |
| 2026-05-04 06:17 | 14.14203 | 121.52988 | 16995 ft | 356 kts | 134° |
| 2026-05-04 06:17 | 14.11842 | 121.55413 | 17534 ft | 359 kts | 134° |
| 2026-05-04 06:17 | 14.10081 | 121.57222 | 17926 ft | 361 kts | 134° |
| 2026-05-04 06:17 | 14.08285 | 121.59064 | 18334 ft | 363 kts | 134° |
| 2026-05-04 06:18 | 14.06502 | 121.60895 | 18694 ft | 365 kts | 134° |
| 2026-05-04 06:18 | 14.04686 | 121.62758 | 19077 ft | 368 kts | 134° |
| 2026-05-04 06:18 | 14.02877 | 121.64613 | 19457 ft | 370 kts | 134° |
| 2026-05-04 06:20 | 13.90499 | 121.77306 | 21685 ft | 384 kts | 135° |
| 2026-05-04 06:20 | 13.87949 | 121.79916 | 22092 ft | 387 kts | 135° |
| 2026-05-04 06:21 | 13.80827 | 121.88337 | 23284 ft | 395 kts | 130° |
| 2026-05-04 06:21 | 13.79048 | 121.90519 | 23581 ft | 397 kts | 130° |
| 2026-05-04 06:22 | 13.77269 | 121.92699 | 23869 ft | 399 kts | 130° |
| 2026-05-04 06:22 | 13.76081 | 121.94156 | 24066 ft | 400 kts | 130° |
| 2026-05-04 06:25 | 13.52038 | 122.23557 | 27424 ft | 426 kts | 129° |
| 2026-05-04 06:25 | 13.49484 | 122.26676 | 27761 ft | 427 kts | 129° |
| 2026-05-04 06:26 | 13.47572 | 122.29009 | 28000 ft | 429 kts | 129° |
| 2026-05-04 06:26 | 13.45646 | 122.31357 | 28253 ft | 430 kts | 129° |
| 2026-05-04 06:26 | 13.44349 | 122.32938 | 28419 ft | 431 kts | 129° |
| 2026-05-04 06:26 | 13.41772 | 122.36081 | 28737 ft | 433 kts | 129° |
| 2026-05-04 06:27 | 13.34660 | 122.44752 | 29686 ft | 436 kts | 129° |
| 2026-05-04 06:28 | 13.32042 | 122.47940 | 29999 ft | 437 kts | 130° |
| 2026-05-04 06:28 | 13.30745 | 122.49519 | 30161 ft | 438 kts | 130° |
| 2026-05-04 06:28 | 13.28783 | 122.51907 | 30390 ft | 440 kts | 130° |
| 2026-05-04 06:28 | 13.26794 | 122.54326 | 30603 ft | 442 kts | 130° |
| 2026-05-04 06:29 | 13.24156 | 122.57533 | 30883 ft | 444 kts | 130° |
| 2026-05-04 06:29 | 13.22833 | 122.59141 | 31027 ft | 445 kts | 130° |
| 2026-05-04 06:29 | 13.20834 | 122.61571 | 31243 ft | 446 kts | 130° |
| 2026-05-04 06:29 | 13.18167 | 122.64812 | 31523 ft | 448 kts | 130° |
| 2026-05-04 06:30 | 13.16804 | 122.66468 | 31661 ft | 449 kts | 130° |
| 2026-05-04 06:30 | 13.14800 | 122.68901 | 31863 ft | 451 kts | 130° |
| 2026-05-04 06:30 | 13.12080 | 122.72205 | 32194 ft | 452 kts | 131° |
| 2026-05-04 06:30 | 13.10731 | 122.73842 | 32394 ft | 451 kts | 131° |
| 2026-05-04 06:31 | 13.08731 | 122.76269 | 32697 ft | 450 kts | 131° |
| 2026-05-04 06:31 | 13.06023 | 122.79555 | 33123 ft | 450 kts | 131° |
| 2026-05-04 06:31 | 13.04697 | 122.81163 | 33338 ft | 449 kts | 131° |
| 2026-05-04 06:31 | 13.02672 | 122.83617 | 33665 ft | 448 kts | 131° |
| 2026-05-04 06:32 | 13.00004 | 122.86852 | 34102 ft | 447 kts | 131° |
| 2026-05-04 06:33 | 12.85961 | 123.03858 | 35870 ft | 449 kts | 131° |
| 2026-05-04 06:34 | 12.83938 | 123.06304 | 36055 ft | 450 kts | 131° |
| 2026-05-04 06:34 | 12.82593 | 123.07931 | 36178 ft | 450 kts | 131° |
| 2026-05-04 06:34 | 12.80552 | 123.10400 | 36356 ft | 451 kts | 131° |
| 2026-05-04 06:34 | 12.77850 | 123.13666 | 36569 ft | 452 kts | 131° |
| 2026-05-04 06:36 | 12.61491 | 123.33418 | 36887 ft | 455 kts | 131° |
| 2026-05-04 06:37 | 12.58066 | 123.37549 | 36887 ft | 455 kts | 131° |
| 2026-05-04 06:37 | 12.53994 | 123.42459 | 36888 ft | 455 kts | 131° |
| 2026-05-04 06:38 | 12.49203 | 123.48236 | 36887 ft | 455 kts | 131° |
| 2026-05-04 06:40 | 12.34625 | 123.63673 | 36892 ft | 453 kts | 144° |
| 2026-05-04 06:40 | 12.31161 | 123.66089 | 36891 ft | 452 kts | 149° |
| 2026-05-04 06:40 | 12.26590 | 123.68739 | 36891 ft | 452 kts | 152° |
| 2026-05-04 06:41 | 12.21062 | 123.71774 | 36889 ft | 452 kts | 152° |
| 2026-05-04 06:41 | 12.15502 | 123.74830 | 36886 ft | 452 kts | 152° |
| 2026-05-04 06:42 | 12.09973 | 123.77874 | 36884 ft | 451 kts | 152° |
| 2026-05-04 06:44 | 11.86930 | 123.90562 | 36880 ft | 451 kts | 152° |
| 2026-05-04 06:44 | 11.82316 | 123.93100 | 36879 ft | 451 kts | 152° |
| 2026-05-04 06:45 | 11.76783 | 123.96143 | 36877 ft | 450 kts | 152° |
| 2026-05-04 06:45 | 11.70336 | 123.99686 | 36877 ft | 450 kts | 152° |
| 2026-05-04 06:46 | 11.65755 | 124.02203 | 36876 ft | 450 kts | 152° |
| 2026-05-04 06:46 | 11.60256 | 124.05223 | 36874 ft | 449 kts | 152° |
| 2026-05-04 06:48 | 11.38217 | 124.17313 | 36870 ft | 448 kts | 152° |
| 2026-05-04 06:50 | 11.16248 | 124.29350 | 36873 ft | 447 kts | 152° |
| 2026-05-04 06:51 | 11.10792 | 124.32338 | 36875 ft | 447 kts | 152° |
| 2026-05-04 06:51 | 11.05298 | 124.35332 | 36881 ft | 447 kts | 152° |
| 2026-05-04 06:52 | 10.99811 | 124.38279 | 36883 ft | 446 kts | 152° |
| 2026-05-04 06:52 | 10.94307 | 124.41239 | 36887 ft | 446 kts | 152° |
| 2026-05-04 06:53 | 10.88811 | 124.44200 | 36889 ft | 446 kts | 152° |
| 2026-05-04 06:53 | 10.83323 | 124.47159 | 36889 ft | 446 kts | 152° |
| 2026-05-04 06:54 | 10.77835 | 124.50114 | 36886 ft | 446 kts | 152° |
| 2026-05-04 06:54 | 10.72342 | 124.53080 | 36883 ft | 446 kts | 152° |
| 2026-05-04 06:55 | 10.66862 | 124.56052 | 36879 ft | 446 kts | 152° |
| 2026-05-04 06:55 | 10.61411 | 124.59011 | 36875 ft | 446 kts | 152° |
| 2026-05-04 06:57 | 10.38592 | 124.71387 | 36869 ft | 445 kts | 152° |
| 2026-05-04 06:58 | 10.34044 | 124.73850 | 36868 ft | 445 kts | 152° |
| 2026-05-04 06:58 | 10.28562 | 124.76820 | 36868 ft | 445 kts | 152° |
| 2026-05-04 06:59 | 10.23097 | 124.79779 | 36867 ft | 445 kts | 152° |
| 2026-05-04 06:59 | 10.17627 | 124.82740 | 36867 ft | 445 kts | 152° |
| 2026-05-04 07:01 | 9.95713 | 124.94591 | 36864 ft | 446 kts | 152° |
| 2026-05-04 07:02 | 9.90253 | 124.97543 | 36864 ft | 445 kts | 152° |
| 2026-05-04 07:02 | 9.84765 | 125.00510 | 36868 ft | 446 kts | 152° |
| 2026-05-04 07:03 | 9.79300 | 125.03464 | 36865 ft | 446 kts | 152° |
| 2026-05-04 07:03 | 9.72881 | 125.06922 | 36865 ft | 446 kts | 152° |
| 2026-05-04 07:04 | 9.68327 | 125.09374 | 36867 ft | 446 kts | 152° |
| 2026-05-04 07:04 | 9.61925 | 125.12824 | 36865 ft | 446 kts | 152° |
| 2026-05-04 07:05 | 9.57359 | 125.15268 | 36867 ft | 446 kts | 152° |
| 2026-05-04 07:05 | 9.51824 | 125.18209 | 36865 ft | 446 kts | 152° |
| 2026-05-04 07:06 | 9.43583 | 125.22598 | 36866 ft | 446 kts | 152° |
| 2026-05-04 07:07 | 9.38093 | 125.25523 | 36868 ft | 446 kts | 152° |
| 2026-05-04 07:09 | 9.16074 | 125.37252 | 36867 ft | 446 kts | 152° |
| 2026-05-04 07:09 | 9.10579 | 125.40179 | 36864 ft | 446 kts | 152° |
| 2026-05-04 07:10 | 9.05100 | 125.43096 | 36657 ft | 447 kts | 152° |
| 2026-05-04 07:10 | 9.02324 | 125.44558 | 36361 ft | 444 kts | 153° |
| 2026-05-04 07:12 | 8.83801 | 125.49558 | 34513 ft | 437 kts | 176° |
| 2026-05-04 07:12 | 8.79744 | 125.49953 | 33907 ft | 438 kts | 176° |
| 2026-05-04 07:12 | 8.77702 | 125.50153 | 33533 ft | 440 kts | 176° |
| 2026-05-04 07:12 | 8.74637 | 125.50453 | 32836 ft | 441 kts | 175° |
| 2026-05-04 07:13 | 8.71589 | 125.50754 | 32133 ft | 442 kts | 175° |
| 2026-05-04 07:13 | 8.68510 | 125.51060 | 31404 ft | 444 kts | 174° |
| 2026-05-04 07:13 | 8.65455 | 125.51370 | 30830 ft | 441 kts | 173° |
| 2026-05-04 07:14 | 8.53425 | 125.52608 | 28964 ft | 425 kts | 173° |
| 2026-05-04 07:14 | 8.50474 | 125.52894 | 28520 ft | 421 kts | 174° |
| 2026-05-04 07:15 | 8.47555 | 125.53153 | 28074 ft | 418 kts | 174° |
| 2026-05-04 07:15 | 8.44687 | 125.53405 | 27606 ft | 415 kts | 174° |
| 2026-05-04 07:15 | 8.41817 | 125.53657 | 27101 ft | 414 kts | 174° |
| 2026-05-04 07:15 | 8.38943 | 125.53912 | 26595 ft | 412 kts | 174° |
| 2026-05-04 07:16 | 8.36067 | 125.54169 | 26101 ft | 410 kts | 173° |
| 2026-05-04 07:16 | 8.33228 | 125.54423 | 25622 ft | 408 kts | 173° |
| 2026-05-04 07:16 | 8.30391 | 125.54678 | 25146 ft | 406 kts | 173° |
| 2026-05-04 07:16 | 8.27590 | 125.54929 | 24679 ft | 404 kts | 173° |
| 2026-05-04 07:17 | 8.24823 | 125.55178 | 24216 ft | 401 kts | 173° |
| 2026-05-04 07:17 | 8.22011 | 125.55430 | 23741 ft | 399 kts | 173° |
| 2026-05-04 07:17 | 8.19277 | 125.55676 | 23260 ft | 398 kts | 173° |
| 2026-05-04 07:17 | 8.16498 | 125.55926 | 22769 ft | 396 kts | 173° |
| 2026-05-04 07:18 | 8.13754 | 125.56172 | 22286 ft | 395 kts | 173° |
| 2026-05-04 07:18 | 8.11004 | 125.56420 | 21815 ft | 394 kts | 173° |
| 2026-05-04 07:18 | 8.08284 | 125.56665 | 21353 ft | 392 kts | 173° |
| 2026-05-04 07:18 | 8.05556 | 125.56911 | 20897 ft | 390 kts | 173° |
| 2026-05-04 07:19 | 8.02852 | 125.57153 | 20444 ft | 388 kts | 173° |
| 2026-05-04 07:19 | 8.00170 | 125.57393 | 19998 ft | 386 kts | 173° |
| 2026-05-04 07:19 | 7.97492 | 125.57465 | 19537 ft | 386 kts | 181° |
| 2026-05-04 07:19 | 7.94808 | 125.57098 | 19084 ft | 386 kts | 191° |
| 2026-05-04 07:20 | 7.92232 | 125.56406 | 18634 ft | 385 kts | 194° |
| 2026-05-04 07:20 | 7.89657 | 125.55637 | 18190 ft | 383 kts | 194° |
| 2026-05-04 07:20 | 7.87108 | 125.54866 | 17746 ft | 381 kts | 194° |
| 2026-05-04 07:20 | 7.84557 | 125.54102 | 17296 ft | 379 kts | 194° |
| 2026-05-04 07:22 | 7.67153 | 125.48980 | 14124 ft | 365 kts | 195° |
| 2026-05-04 07:22 | 7.64711 | 125.48263 | 13662 ft | 363 kts | 195° |
| 2026-05-04 07:23 | 7.62289 | 125.47553 | 13198 ft | 361 kts | 195° |
| 2026-05-04 07:23 | 7.59900 | 125.46853 | 12740 ft | 359 kts | 195° |
| 2026-05-04 07:23 | 7.57508 | 125.46152 | 12300 ft | 356 kts | 195° |
| 2026-05-04 07:23 | 7.55107 | 125.45448 | 11855 ft | 354 kts | 195° |
| 2026-05-04 07:24 | 7.52739 | 125.44753 | 11415 ft | 352 kts | 195° |
| 2026-05-04 07:24 | 7.50402 | 125.44069 | 10981 ft | 350 kts | 195° |
| 2026-05-04 07:24 | 7.48062 | 125.43384 | 10535 ft | 347 kts | 195° |
| 2026-05-04 07:24 | 7.45760 | 125.42710 | 10150 ft | 343 kts | 195° |
| 2026-05-04 07:25 | 7.43504 | 125.42049 | 9993 ft | 330 kts | 195° |
| 2026-05-04 07:26 | 7.28848 | 125.40391 | 7620 ft | 298 kts | 166° |
| 2026-05-04 07:27 | 7.26820 | 125.40854 | 7237 ft | 296 kts | 166° |
| 2026-05-04 07:27 | 7.24830 | 125.41293 | 6867 ft | 294 kts | 166° |
| 2026-05-04 07:27 | 7.22813 | 125.41728 | 6496 ft | 291 kts | 167° |
| 2026-05-04 07:27 | 7.20860 | 125.42145 | 6134 ft | 289 kts | 167° |
| 2026-05-04 07:28 | 7.18878 | 125.42563 | 5780 ft | 286 kts | 167° |
| 2026-05-04 07:28 | 7.16926 | 125.42974 | 5437 ft | 283 kts | 167° |
| 2026-05-04 07:28 | 7.15022 | 125.43376 | 5094 ft | 280 kts | 167° |
| 2026-05-04 07:28 | 7.13116 | 125.43778 | 4749 ft | 277 kts | 167° |
| 2026-05-04 07:29 | 7.11227 | 125.44177 | 4408 ft | 274 kts | 167° |
| 2026-05-04 07:29 | 7.09362 | 125.44570 | 4095 ft | 271 kts | 167° |
| 2026-05-04 07:29 | 7.07547 | 125.44987 | 4007 ft | 259 kts | 160° |
| 2026-05-04 07:29 | 7.05999 | 125.45773 | 3902 ft | 248 kts | 142° |
| 2026-05-04 07:30 | 7.04657 | 125.46876 | 3673 ft | 246 kts | 137° |
| 2026-05-04 07:30 | 7.03390 | 125.48006 | 3481 ft | 242 kts | 137° |
| 2026-05-04 07:30 | 7.02207 | 125.49191 | 3278 ft | 239 kts | 121° |
| 2026-05-04 07:30 | 7.01715 | 125.50735 | 3171 ft | 228 kts | 89° |
| 2026-05-04 07:31 | 7.02091 | 125.52247 | 2946 ft | 226 kts | 62° |
| 2026-05-04 07:31 | 7.02998 | 125.53561 | 2637 ft | 229 kts | 50° |
| 2026-05-04 07:33 | 7.09409 | 125.60919 | 774 ft | 148 kts | 51° |
| 2026-05-04 07:33 | 7.10073 | 125.61695 | 594 ft | 145 kts | 50° |
| 2026-05-04 07:33 | 7.10733 | 125.62464 | 402 ft | 143 kts | 51° |
| 2026-05-04 07:33 | 7.11379 | 125.63216 | 228 ft | 139 kts | 52° |
| 2026-05-04 07:34 | 7.12002 | 125.63919 | 121 ft | 125 kts | 51° |
| 2026-05-04 07:34 | 7.12481 | 125.64497 | 114 ft | 83 kts | 49° |
| 2026-05-04 07:34 | 7.12733 | 125.64789 | 114 ft | 26 kts | 50° |
| 2026-05-04 07:34 | 7.12810 | 125.64880 | 114 ft | 11 kts | 49° |
| 2026-05-04 07:35 | 7.12868 | 125.64912 | 114 ft | 9 kts | 351° |
| 2026-05-04 07:35 | 7.12919 | 125.64888 | 114 ft | 8 kts | 317° |
| 2026-05-04 07:35 | 7.12962 | 125.64848 | 114 ft | 8 kts | 317° |
| 2026-05-04 07:35 | 7.13002 | 125.64809 | 114 ft | 7 kts | 304° |
| 2026-05-04 07:36 | 7.13005 | 125.64761 | 114 ft | 6 kts | 245° |
| 2026-05-04 07:36 | 7.12975 | 125.64722 | 114 ft | 7 kts | 229° |
| 2026-05-04 07:38 | 7.12990 | 125.64598 | 116 ft | 0 kts | 318° |